Terminal Aerodrome Forecast
Issued by NWS Portland, OR

Home | Current Version | Previous Version | Text Only | Print | Product List | Glossary On
Versions: 1 2 3 4 5 6 7 8 9 10 11 12 13 14
000
FTUS46 KPQR 291132
TAFHIO
TAF
KHIO 291132Z 2912/3012 VRB03KT P6SM OVC040
     FM291800 31007KT P6SM BKN045
     FM292300 32010KT P6SM SCT045
     FM300600 31005KT P6SM FEW040=

USA.gov is the U.S. government's official web portal to all federal, state and local government web resources and services.